• Join FlightAware (Why Join?)
  • Login
  • US Flag 
05:50PM EDT


 

Airport Tracker/Info


-or-


 

Live Flight TrackerFlight Track Log ✈ N508QS ✈ 20-May-2013 ✈ KOCF - MYNN / NAS

Flight Track Log - Related Links

Times and Time Zones

All times are in EDT time to prevent confusion due to time zone crossing. See the N508QS flight status page for this flight to view local times or setup timezone preferences in your user account.

Time Position Orientation Groundspeed Altitude Reporting Facility
EDT Latitude Longitude Course Direction KTS MPH feet Rate Location/Type
10:18AM 29.1561 -82.2267 177° South 161 185 900  Level Jacksonville Center
10:19AM 29.1250 -82.2247 177° South 176 203 3,100 3,660 Climbing Jacksonville Center
10:20AM 29.0725 -82.1797 143° Southeast 272 313 6,900 3,300 Climbing Jacksonville Center
10:21AM 29.0408 -82.1231 123° Southeast 279 321 8,900 1,560 Climbing Jacksonville Center
10:22AM 28.9925 -82.0500 127° Southeast 307 353 9,700 1,200 Climbing Jacksonville Center
10:23AM 28.9458 -81.9719 124° Southeast 319 367 11,300 2,100 Climbing Jacksonville Center
10:24AM 28.8847 -81.8731 125° Southeast 353 406 14,000 3,240 Climbing Jacksonville Center
10:25AM 28.8169 -81.7669 126° Southeast 392 451 17,800 3,420 Climbing Jacksonville Center
10:26AM 28.7408 -81.6494 126° Southeast 412 474 20,900 2,880 Climbing Jacksonville Center
10:27AM 28.6664 -81.5319 126° Southeast 433 498 23,600 2,160 Climbing Jacksonville Center
10:29AM 28.4800 -81.2444 126° Southeast 477 549 28,500 1,980 Climbing Miami Center
10:30AM 28.3919 -81.1183 128° Southeast 498 573 30,500 2,040 Climbing Miami Center
10:31AM 28.3078 -80.9972 128° Southeast 498 573 32,600 1,200 Climbing Miami Center
10:32AM 28.2236 -80.8764 128° Southeast 503 579 33,000 180 Climbing Miami Center
10:33AM 28.1372 -80.7533 129° Southeast 503 579 33,000  Level Miami Center
10:34AM 28.0528 -80.6375 130° Southeast 495 570 33,000 480 Level Miami Center
10:35AM 27.9639 -80.5194 130° Southeast 490 564 34,000 960 Climbing Miami Center
10:36AM 27.8833 -80.4064 129° Southeast 480 552 35,000 840 Climbing Miami Center
10:37AM 27.7942 -80.2886 131° Southeast 486 559 35,700 480 Climbing Miami Center
10:38AM 27.7114 -80.1758 130° Southeast 486 559 36,000 120 Climbing Miami Center
10:39AM 27.6261 -80.0586 129° Southeast 486 559 36,000  Level Miami Center
10:40AM 27.5411 -79.9439 130° Southeast 481 554 36,000  Level Miami Center
10:41AM 27.4600 -79.8317 129° Southeast 481 554 36,000  Level Miami Center
10:42AM 27.3664 -79.7053 130° Southeast 474 545 36,000  Level Miami Center
10:43AM 27.2808 -79.5886 130° Southeast 480 552 36,000  Level Miami Center
10:44AM 27.1933 -79.4697 130° Southeast 480 552 36,000  Level Miami Center
10:45AM 27.1117 -79.3606 130° Southeast 492 566 36,000  Level Miami Center
10:46AM 27.0158 -79.2303 130° Southeast 492 566 36,000 -240 Level Miami Center
10:47AM 26.9319 -79.1192 130° Southeast 486 559 35,600 -720 Descending Miami Center
10:48AM 26.8417 -78.9986 130° Southeast 492 566 34,600 -1,200 Descending Miami Center
10:49AM 26.7556 -78.8853 130° Southeast 492 566 33,300 -1,440 Descending Miami Center
10:50AM 26.6675 -78.7653 129° Southeast 492 566 31,800 -1,620 Descending Miami Center
10:51AM 26.5831 -78.6594 132° Southeast 498 573 30,100 -1,860 Descending Miami Center
10:52AM 26.4989 -78.5442 129° Southeast 493 567 28,100 -1,860 Descending Miami Center
10:53AM 26.4164 -78.4342 130° Southeast 482 555 26,400 -1,620 Descending Miami Center
10:54AM 26.3339 -78.3308 132° Southeast 461 531 24,900 -1,500 Descending Miami Center
10:55AM 26.2556 -78.2233 129° Southeast 449 517 23,400 -1,500 Descending Miami Center
10:56AM 26.1750 -78.1231 132° Southeast 444 511 21,900 -1,500 Descending Miami Center
10:57AM 26.0986 -78.0203 130° Southeast 439 505 20,500 -1,440 Descending Miami Center
10:58AM 26.0200 -77.9203 131° Southeast 428 493 19,100 -1,380 Descending Miami Center
10:59AM 25.9453 -77.8269 132° Southeast 421 484 17,800 -1,380 Descending Miami Center
11:00AM 25.8750 -77.7342 130° Southeast 407 468 16,400 -1,380 Descending Miami Center
11:01AM 25.8044 -77.6389 129° Southeast 401 461 15,100 -1,260 Descending Miami Center
11:02AM 25.7381 -77.5531 131° Southeast 387 445 13,900 -1,260 Descending Miami Center
11:03AM 25.6608 -77.5228 161° South 323 372 12,600 -1,560 Descending Miami Center
11:04AM 25.5772 -77.5314 185° South 285 328 10,800 -1,800 Descending Miami Center
11:05AM 25.4997 -77.5425 187° South 285 328 9,000 -1,800 Descending Miami Center
11:07AM 25.3453 -77.5169 180° South  Level Estimated
11:14AM 25.0390 -77.4662 170° South  Level Estimated
11:15AM 25.0390 -77.4662 170° South  Level Estimated
11:16AM 25.0390 -77.4662 170° South  Level Estimated
11:17AM 25.0390 -77.4662 170° South  Level Estimated
11:18AM 25.0390 -77.4662 170° South  Level Estimated
11:19AM 25.0390 -77.4662 170° South  Level Estimated
11:20AM 25.0390 -77.4662 170° South  Level Estimated
11:21AM 25.0390 -77.4662 170° South  Level Estimated
11:22AM 25.0390 -77.4662 170° South  Level Estimated
11:23AM 25.0390 -77.4662 170° South  Level Estimated
11:24AM 25.0390 -77.4662 170° South  Level Estimated